Time;durP1;ratioP1;P1;durP2;ratioP2;P2;SDS_P1;SDS_P2;PMS_P1;PMS_P2;Temp;Humidity;BMP_temperature;BMP_pressure;BME280_temperature;BME280_humidity;BME280_pressure;Samples;Min_cycle;Max_cycle;Signal;HPM_P1;HPM_P2
2023/03/14 07:34:39;;;;;;;3.30;1.40;;;7.20;99.90;;;;;;5072833;28;20617;-78
2023/03/14 07:41:56;;;;;;;1.40;1.10;;;7.20;99.90;;;;;;5132272;27;20271;-76
2023/03/14 07:49:34;;;;;;;1.63;1.10;;;7.20;99.90;;;;;;5071347;28;20563;-77
2023/03/14 07:56:49;;;;;;;1.53;1.30;;;7.50;99.90;;;;;;5137440;27;20283;-77
2023/03/14 08:03:50;;;;;;;3.60;1.50;;;7.40;99.90;;;;;;5132224;27;20602;-77
2023/03/14 08:09:18;;;;;;;1.47;1.00;;;7.70;99.90;;;;;;5133156;27;20287;-78
2023/03/14 08:13:49;;;;;;;1.63;1.33;;;7.80;99.90;;;;;;5133039;27;20277;-77
2023/03/14 08:18:18;;;;;;;5.77;2.07;;;7.80;99.90;;;;;;5133768;27;20265;-77
2023/03/14 08:22:02;;;;;;;1.63;1.00;;;8.10;99.90;;;;;;5133015;27;20282;-77
2023/03/14 08:26:05;;;;;;;3.97;1.03;;;8.00;99.90;;;;;;5133570;27;20272;-77
2023/03/14 08:30:25;;;;;;;12.03;2.20;;;8.30;99.90;;;;;;5072737;28;20566;-76
2023/03/14 08:34:41;;;;;;;5.43;1.43;;;8.40;99.90;;;;;;5133835;27;20280;-76
2023/03/14 08:38:54;;;;;;;4.23;1.67;;;8.40;99.90;;;;;;5132987;27;20265;-76
2023/03/14 08:43:12;;;;;;;7.10;1.33;;;8.50;99.90;;;;;;5132237;27;20274;-76
2023/03/14 08:47:02;;;;;;;2.17;0.77;;;;;;;;;;5133140;27;20620;-77
2023/03/14 08:49:27;;;;;;;4.10;1.20;;;8.60;99.90;;;;;;5132563;28;20198;-77
2023/03/14 08:51:53;;;;;;;1.40;0.70;;;8.70;99.90;;;;;;5132169;27;20194;-76
2023/03/14 08:54:19;;;;;;;2.50;0.90;;;9.00;99.90;;;;;;5133056;27;20577;-77
2023/03/14 08:56:44;;;;;;;9.97;1.50;;;9.20;99.90;;;;;;5132227;27;20272;-76
2023/03/14 08:59:10;;;;;;;2.90;1.10;;;9.40;99.90;;;;;;5132480;27;20201;-76
2023/03/14 09:01:36;;;;;;;4.20;0.80;;;9.40;99.90;;;;;;5132510;27;20594;-76
2023/03/14 09:04:02;;;;;;;1.33;0.90;;;9.70;99.90;;;;;;5132052;27;20213;-76
2023/03/14 09:06:28;;;;;;;1.37;0.70;;;9.80;99.90;;;;;;5131759;27;20206;-76
2023/03/14 09:08:53;;;;;;;0.73;0.67;;;10.60;99.90;;;;;;5132655;27;20673;-77
2023/03/14 09:11:19;;;;;;;0.83;0.50;;;10.60;99.90;;;;;;5132041;27;20541;-75
2023/03/14 09:13:45;;;;;;;0.50;0.50;;;10.60;99.90;;;;;;5131416;27;20174;-76
2023/03/14 09:16:10;;;;;;;2.00;0.70;;;10.60;99.90;;;;;;5131983;27;20174;-76
2023/03/14 09:18:36;;;;;;;0.83;0.60;;;;;;;;;;5131490;27;20182;-76
2023/03/14 09:21:03;;;;;;;0.87;0.60;;;10.80;99.90;;;;;;5131469;28;20620;-76
2023/03/14 09:23:28;;;;;;;1.77;0.50;;;10.90;99.90;;;;;;5131334;27;20172;-77
2023/03/14 09:25:56;;;;;;;1.33;0.90;;;11.20;99.90;;;;;;5131803;27;20195;-78
2023/03/14 09:28:22;;;;;;;4.43;1.17;;;11.20;99.90;;;;;;5132063;27;20278;-76
2023/03/14 09:30:47;;;;;;;1.70;1.20;;;11.30;99.90;;;;;;5133695;27;20191;-76
2023/03/14 09:33:13;;;;;;;1.57;1.00;;;11.80;99.90;;;;;;5133611;28;20175;-77
2023/03/14 09:35:39;;;;;;;2.40;1.37;;;;;;;;;;5137074;27;20182;-77
2023/03/14 09:38:05;;;;;;;0.90;0.70;;;11.70;99.90;;;;;;5132244;28;20249;-76
2023/03/14 09:40:34;;;;;;;1.87;1.07;;;11.80;99.90;;;;;;5130042;28;20608;-76
2023/03/14 09:43:00;;;;;;;4.63;2.93;;;12.00;99.90;;;;;;5132477;27;20175;-76
2023/03/14 09:45:32;;;;;;;1.13;0.90;;;12.60;99.90;;;;;;5129927;28;20252;-76
2023/03/14 09:48:00;;;;;;;0.80;0.80;;;13.10;99.90;;;;;;5130422;28;20167;-77
2023/03/14 09:50:31;;;;;;;1.43;1.03;;;13.00;99.90;;;;;;5130868;27;20287;-76
2023/03/14 09:53:03;;;;;;;4.70;3.00;;;12.00;99.90;;;;;;5130506;27;20160;-76
2023/03/14 09:55:28;;;;;;;2.20;0.70;;;12.00;99.90;;;;;;5129463;28;20171;-76
2023/03/14 09:58:02;;;;;;;2.17;1.80;;;11.70;99.90;;;;;;5119792;27;20533;-76
2023/03/14 10:00:30;;;;;;;1.17;1.07;;;11.40;99.90;;;;;;5116691;28;20217;-75
2023/03/14 10:03:13;;;;;;;0.67;0.50;;;10.80;99.90;;;;;;5116553;28;20172;-75
2023/03/14 10:05:41;;;;;;;0.90;0.80;;;10.70;99.90;;;;;;5116637;28;20248;-77
2023/03/14 10:08:10;;;;;;;0.60;0.60;;;10.60;99.90;;;;;;5117255;27;20269;-75
2023/03/14 10:10:36;;;;;;;0.50;0.50;;;10.60;99.90;;;;;;5116538;28;20196;-76
2023/03/14 10:13:15;;;;;;;0.50;0.50;;;10.60;99.90;;;;;;5115379;28;20186;-78
2023/03/14 10:15:46;;;;;;;0.53;0.53;;;10.40;99.90;;;;;;5116822;28;20596;-75
2023/03/14 10:18:13;;;;;;;0.70;0.70;;;10.40;99.90;;;;;;5117586;27;20179;-76
2023/03/14 10:20:45;;;;;;;0.50;0.50;;;10.60;99.90;;;;;;5116708;28;20244;-76
2023/03/14 10:23:14;;;;;;;0.40;0.40;;;11.00;99.90;;;;;;5116800;28;20170;-76
2023/03/14 10:25:43;;;;;;;0.93;0.50;;;10.90;99.90;;;;;;5115232;28;20207;-75
2023/03/14 10:28:27;;;;;;;0.80;0.50;;;11.10;99.90;;;;;;5116731;28;20179;-75
2023/03/14 10:30:54;;;;;;;0.40;0.40;;;11.60;99.90;;;;;;5116529;28;20192;-76
2023/03/14 10:33:23;;;;;;;1.40;0.63;;;11.40;99.90;;;;;;5116842;28;20703;-76
2023/03/14 10:36:03;;;;;;;1.13;0.50;;;11.30;99.90;;;;;;5116584;28;20180;-76
2023/03/14 10:38:34;;;;;;;0.50;0.50;;;11.30;99.90;;;;;;5117192;28;20171;-76
2023/03/14 10:41:01;;;;;;;0.50;0.50;;;11.30;99.90;;;;;;5117114;28;20661;-75
2023/03/14 10:43:35;;;;;;;0.83;0.40;;;11.30;99.90;;;;;;5116315;28;20245;-75
2023/03/14 10:46:06;;;;;;;0.77;0.40;;;11.20;99.90;;;;;;5116451;28;20230;-76
2023/03/14 10:48:37;;;;;;;0.63;0.50;;;11.40;99.90;;;;;;5115478;28;20175;-76
2023/03/14 10:51:10;;;;;;;0.40;0.40;;;11.40;99.90;;;;;;5116818;28;20195;-75
2023/03/14 10:53:59;;;;;;;0.30;0.30;;;11.50;99.90;;;;;;5117131;28;20246;-76
2023/03/14 10:56:26;;;;;;;0.30;0.30;;;11.40;99.90;;;;;;5116308;28;20238;-76
2023/03/14 10:59:04;;;;;;;0.50;0.50;;;11.40;99.90;;;;;;5116994;28;20645;-77
2023/03/14 11:01:36;;;;;;;0.40;0.40;;;11.30;99.90;;;;;;5121647;28;20167;-76
2023/03/14 11:04:11;;;;;;;0.50;0.40;;;12.00;99.90;;;;;;5117107;28;20171;-77
2023/03/14 11:07:06;;;;;;;0.50;0.50;;;12.20;99.90;;;;;;5119294;28;20188;-75
2023/03/14 11:09:32;;;;;;;0.40;0.40;;;12.90;99.90;;;;;;5088015;28;20203;-76
2023/03/14 11:12:22;;;;;;;0.60;0.40;;;12.90;99.90;;;;;;5114816;28;20175;-75
2023/03/14 11:14:52;;;;;;;0.60;0.40;;;13.00;99.90;;;;;;5116125;28;20167;-75
2023/03/14 11:17:47;;;;;;;0.40;0.40;;;13.00;99.90;;;;;;5116037;28;20156;-76
2023/03/14 11:20:34;;;;;;;0.50;0.40;;;13.20;99.90;;;;;;5097748;28;20212;-76
2023/03/14 11:23:14;;;;;;;0.30;0.30;;;13.20;99.90;;;;;;5123290;27;20208;-75
2023/03/14 11:26:01;;;;;;;0.40;0.40;;;13.10;99.90;;;;;;5132590;27;20191;-77
2023/03/14 11:29:07;;;;;;;1.63;0.40;;;12.10;99.90;;;;;;5127016;27;20170;-78
2023/03/14 11:31:38;;;;;;;0.50;0.50;;;12.10;99.90;;;;;;5108213;28;20185;-79
2023/03/14 11:34:17;;;;;;;0.50;0.50;;;12.00;99.90;;;;;;5116314;28;20664;-78
2023/03/14 11:37:00;;;;;;;1.27;0.90;;;11.90;99.90;;;;;;5116860;28;20161;-79
2023/03/14 11:39:35;;;;;;;1.37;1.07;;;11.40;99.90;;;;;;5118379;28;20215;-79
2023/03/14 11:42:02;;;;;;;0.70;0.70;;;11.40;99.90;;;;;;5119206;28;20155;-80
2023/03/14 11:44:36;;;;;;;1.10;0.40;;;11.30;99.90;;;;;;5119095;28;20179;-79
2023/03/14 11:47:20;;;;;;;1.43;0.50;;;11.20;99.90;;;;;;5118661;28;20187;-80
2023/03/14 11:50:03;;;;;;;0.40;0.40;;;11.20;99.90;;;;;;5115373;28;20687;-75
2023/03/14 11:52:34;;;;;;;0.50;0.40;;;11.00;99.90;;;;;;5113730;28;20231;-76
2023/03/14 11:55:25;;;;;;;0.50;0.50;;;10.50;99.90;;;;;;5115287;28;20175;-77
2023/03/14 11:57:53;;;;;;;0.40;0.40;;;10.30;99.90;;;;;;5113091;28;20271;-76
2023/03/14 12:00:24;;;;;;;0.60;0.47;;;10.10;99.90;;;;;;5114107;28;20195;-75
2023/03/14 12:03:30;;;;;;;0.40;0.40;;;10.00;99.90;;;;;;5113967;28;20545;-75
2023/03/14 12:06:05;;;;;;;0.40;0.40;;;9.90;99.90;;;;;;5083111;28;20698;-76
2023/03/14 12:08:48;;;;;;;0.40;0.40;;;10.10;99.90;;;;;;5113873;28;20187;-76
2023/03/14 12:11:25;;;;;;;1.33;0.50;;;10.00;99.90;;;;;;5115306;28;20644;-77
2023/03/14 12:13:53;;;;;;;0.40;0.40;;;10.20;99.90;;;;;;5114685;28;20178;-76
2023/03/14 12:16:38;;;;;;;0.43;0.43;;;10.20;99.90;;;;;;5116129;28;20594;-77
2023/03/14 12:19:56;;;;;;;0.50;0.50;;;10.10;99.90;;;;;;5114771;28;20656;-76
2023/03/14 12:22:29;;;;;;;2.07;0.60;;;10.40;99.90;;;;;;5109748;28;20215;-76
2023/03/14 12:25:05;;;;;;;0.57;0.40;;;10.20;99.90;;;;;;5114966;28;20170;-78
2023/03/14 12:27:56;;;;;;;1.90;0.60;;;10.10;99.90;;;;;;5114705;28;20163;-76
2023/03/14 12:30:37;;;;;;;2.23;1.17;;;10.10;99.90;;;;;;5114585;28;20203;-77
2023/03/14 12:33:09;;;;;;;8.53;3.27;;;9.70;99.90;;;;;;5116026;28;20179;-76
2023/03/14 12:35:49;;;;;;;8.53;4.50;;;9.70;99.90;;;;;;5114231;28;20176;-77
2023/03/14 12:38:21;;;;;;;2.10;1.10;;;9.60;99.90;;;;;;5114813;28;20197;-75
2023/03/14 12:40:52;;;;;;;0.70;0.50;;;9.30;99.90;;;;;;5114379;28;20202;-76
2023/03/14 12:43:27;;;;;;;12.10;6.47;;;9.00;99.90;;;;;;5112900;28;20183;-76
2023/03/14 12:46:17;;;;;;;0.50;0.50;;;8.90;99.90;;;;;;5112671;28;20668;-77
2023/03/14 12:49:08;;;;;;;4.20;2.60;;;8.60;99.90;;;;;;5112912;28;20207;-75
2023/03/14 12:51:44;;;;;;;0.40;0.40;;;8.10;99.90;;;;;;5106991;28;20277;-77
2023/03/14 12:54:29;;;;;;;0.70;0.70;;;8.00;99.90;;;;;;5114988;28;20163;-76
2023/03/14 12:57:01;;;;;;;0.60;0.60;;;7.80;99.90;;;;;;5113058;28;20179;-78
2023/03/14 12:59:37;;;;;;;1.27;1.17;;;7.60;99.90;;;;;;5114864;28;20251;-76
2023/03/14 13:02:06;;;;;;;2.27;0.93;;;7.50;99.90;;;;;;5112584;28;20226;-76
2023/03/14 13:04:52;;;;;;;1.63;0.93;;;7.30;99.90;;;;;;5112405;28;20178;-76
2023/03/14 13:07:59;;;;;;;2.90;1.87;;;7.20;99.90;;;;;;5112794;28;20265;-77
2023/03/14 13:10:49;;;;;;;0.90;0.90;;;7.10;99.90;;;;;;5034531;28;20195;-77
2023/03/14 13:13:21;;;;;;;0.97;0.97;;;7.10;99.90;;;;;;5051349;28;20193;-77
2023/03/14 13:15:51;;;;;;;0.70;0.70;;;7.10;99.90;;;;;;5095191;28;20234;-76
2023/03/14 13:18:17;;;;;;;0.60;0.60;;;;;;;;;;5114873;28;20280;-76
2023/03/14 13:20:56;;;;;;;0.70;0.70;;;7.00;99.90;;;;;;5114442;28;20211;-76
2023/03/14 13:23:28;;;;;;;0.63;0.60;;;7.00;99.90;;;;;;5113885;28;20168;-78
2023/03/14 13:25:54;;;;;;;0.60;0.60;;;6.90;99.90;;;;;;5115150;28;20216;-77
2023/03/14 13:28:20;;;;;;;1.97;1.30;;;7.00;99.90;;;;;;5114904;28;20263;-77
2023/03/14 13:41:28;;;;;;;1.07;0.97;;;5.90;99.90;;;;;;5129591;27;20527;-76
2023/03/14 13:53:49;;;;;;;0.93;0.93;;;5.60;99.90;;;;;;5113302;27;20604;-78
2023/03/14 14:00:54;;;;;;;0.90;0.90;;;5.40;99.90;;;;;;5075688;28;20562;-79
2023/03/14 14:08:43;;;;;;;1.00;1.00;;;;;;;;;;5116290;27;20613;-79
2023/03/14 14:15:26;;;;;;;0.90;0.90;;;5.30;99.90;;;;;;5137124;27;20270;-79
2023/03/14 14:20:37;;;;;;;1.37;1.27;;;5.50;99.90;;;;;;5075802;28;20533;-78
2023/03/14 14:24:47;;;;;;;0.90;0.90;;;5.60;99.90;;;;;;5072526;28;20575;-76
2023/03/14 14:28:28;;;;;;;1.27;1.17;;;6.00;99.90;;;;;;5114074;27;20605;-77
2023/03/14 14:31:14;;;;;;;1.10;1.10;;;5.90;99.90;;;;;;5114193;28;20195;-78
2023/03/14 14:35:33;;;;;;;1.00;1.00;;;5.80;99.90;;;;;;5072912;28;20556;-76
2023/03/14 14:41:12;;;;;;;1.37;1.27;;;;;;;;;;5136778;27;20582;-79
2023/03/14 14:46:20;;;;;;;2.93;2.00;;;5.70;99.90;;;;;;5134960;27;20276;-77
2023/03/14 14:51:38;;;;;;;2.77;2.17;;;5.10;99.90;;;;;;5134690;27;20266;-78
2023/03/14 14:56:22;;;;;;;1.10;1.00;;;5.10;99.90;;;;;;5030381;28;20278;-77
2023/03/14 15:01:32;;;;;;;2.77;1.80;;;;;;;;;;5134841;27;20594;-77
2023/03/14 15:05:38;;;;;;;1.37;1.27;;;5.10;99.90;;;;;;5134188;27;20282;-77
2023/03/14 15:08:09;;;;;;;3.47;1.00;;;5.20;99.90;;;;;;5114604;28;20549;-75
2023/03/14 15:10:35;;;;;;;5.30;1.90;;;5.10;99.90;;;;;;5132609;28;20188;-77
2023/03/14 15:16:33;;;;;;;2.80;1.50;;;4.90;99.90;;;;;;5134582;27;20276;-77
2023/03/14 15:22:14;;;;;;;2.57;1.60;;;;;;;;;;5133726;27;20271;-77
2023/03/14 15:29:42;;;;;;;2.33;1.80;;;5.20;99.90;;;;;;5134078;27;20288;-77
2023/03/14 15:33:38;;;;;;;1.53;1.20;;;5.70;99.90;;;;;;5134445;27;20270;-78
2023/03/14 15:36:06;;;;;;;2.50;1.80;;;5.80;99.90;;;;;;5137035;28;20167;-78
2023/03/14 15:38:32;;;;;;;1.70;1.50;;;5.70;99.90;;;;;;5118635;28;20173;-77
2023/03/14 15:42:25;;;;;;;3.80;2.30;;;5.50;99.90;;;;;;5133061;27;20273;-77
2023/03/14 15:48:21;;;;;;;1.47;1.37;;;5.30;99.90;;;;;;5134321;27;20753;-76
